< < Back
Terminal Aerodrome Forecast


Current Version              Previous Versions:   1  2  3  4  5  6  7  8  9  

Terminal Aerodrome Forecast

526
FTUS42 KFFC 031018 AAB
TAFAHN
TAF AMD
KAHN 031018Z 0310/0406 07008KT P6SM BKN008 OVC028
     FM031100 04006KT 6SM -DZ BR OVC008
     FM031300 05007KT 3SM -RADZ BR OVC008
     FM032200 05006KT 6SM BR OVC008=

Latest METAR

139
SAUS70 KWBC 031500
MTRAHN
METAR KAHN 031451Z 05008KT 4SM -RA BR FEW006 OVC010 07/07 A3027 RMK AO2
RAB10 SLP252 P0005 60006 T00720067 51015


USA.gov is the U.S. government's official web portal to all federal, state and local government web resources and services.